Time;durP1;ratioP1;P1;durP2;ratioP2;P2;SDS_P1;SDS_P2;PMS_P1;PMS_P2;Temp;Humidity;BMP_temperature;BMP_pressure;BME280_temperature;BME280_humidity;BME280_pressure;Samples;Min_cycle;Max_cycle;Signal;HPM_P1;HPM_P2
2021/12/23 00:00:05;;;;;;;15.00;12.17;;;-0.80;91.40;;;;;;940233;150;27308;-77
2021/12/23 00:02:32;;;;;;;16.13;11.57;;;-0.80;91.40;;;;;;940346;149;27302;-77
2021/12/23 00:04:58;;;;;;;18.10;12.77;;;-0.80;91.60;;;;;;933287;152;27311;-77
2021/12/23 00:07:25;;;;;;;17.83;12.90;;;-0.80;91.50;;;;;;947058;149;27326;-77
2021/12/23 00:10:04;;;;;;;17.13;12.07;;;-0.80;91.60;;;;;;947408;151;27276;-76
2021/12/23 00:12:21;;;;;;;16.83;11.77;;;-0.80;91.60;;;;;;942953;151;27299;-77
2021/12/23 00:14:50;;;;;;;17.47;12.67;;;-0.80;91.70;;;;;;943642;151;27340;-77
2021/12/23 00:17:26;;;;;;;15.73;11.90;;;-0.80;92.00;;;;;;943512;149;27314;-77
2021/12/23 00:23:21;;;;;;;18.57;13.40;;;-0.80;91.80;;;;;;955330;150;27359;-76
2021/12/23 00:25:04;;;;;;;19.03;13.73;;;-0.70;92.00;;;;;;943549;149;27428;-76
2021/12/23 00:27:30;;;;;;;20.47;12.97;;;-0.60;92.10;;;;;;942271;150;27290;-76
2021/12/23 00:29:59;;;;;;;17.57;12.67;;;-0.60;92.20;;;;;;943639;150;27248;-76
2021/12/23 00:32:26;;;;;;;18.50;13.33;;;-0.50;92.30;;;;;;957508;149;27304;-76
2021/12/23 00:34:53;;;;;;;15.20;11.67;;;-0.50;92.30;;;;;;942381;149;27261;-76
2021/12/23 00:37:19;;;;;;;14.60;12.47;;;-0.40;92.30;;;;;;955735;150;27285;-76
2021/12/23 00:39:46;;;;;;;16.10;11.60;;;-0.30;92.30;;;;;;945360;150;27289;-76
2021/12/23 00:42:12;;;;;;;17.37;12.67;;;-0.30;92.30;;;;;;941504;151;27299;-76
2021/12/23 00:44:46;;;;;;;16.00;12.20;;;-0.20;92.20;;;;;;939596;152;27301;-76
2021/12/23 00:47:08;;;;;;;16.10;11.03;;;-0.10;92.20;;;;;;953300;150;27424;-76
2021/12/23 00:49:35;;;;;;;16.27;11.47;;;-0.10;92.10;;;;;;944653;150;27442;-76
2021/12/23 00:52:03;;;;;;;15.63;12.10;;;0.00;92.00;;;;;;944707;150;27270;-77
2021/12/23 00:54:28;;;;;;;16.50;12.27;;;0.00;91.90;;;;;;944850;149;27294;-76
2021/12/23 00:56:54;;;;;;;16.43;12.23;;;0.00;91.80;;;;;;941445;151;27378;-77
2021/12/23 00:59:21;;;;;;;18.13;11.77;;;0.10;91.70;;;;;;940462;149;27317;-76
2021/12/23 01:01:48;;;;;;;16.03;11.77;;;0.10;91.70;;;;;;941204;149;27305;-76
2021/12/23 01:04:14;;;;;;;14.20;11.10;;;0.10;91.60;;;;;;942621;150;27320;-76
2021/12/23 01:06:41;;;;;;;16.93;11.53;;;0.10;91.50;;;;;;946562;150;27297;-77
2021/12/23 01:09:07;;;;;;;17.63;12.17;;;0.10;91.50;;;;;;951061;150;27353;-77
2021/12/23 01:11:34;;;;;;;18.67;11.40;;;0.10;91.50;;;;;;944146;150;27297;-77
2021/12/23 01:14:14;;;;;;;15.03;11.70;;;0.10;91.50;;;;;;940111;152;27433;-76
2021/12/23 01:16:48;;;;;;;17.73;11.73;;;0.20;91.50;;;;;;947750;149;27470;-76
2021/12/23 01:18:55;;;;;;;18.43;12.80;;;0.10;91.50;;;;;;940740;151;27397;-76
2021/12/23 01:21:20;;;;;;;15.23;11.13;;;0.20;91.50;;;;;;941061;152;27430;-76
2021/12/23 01:23:50;;;;;;;15.30;11.00;;;0.20;91.50;;;;;;942354;150;27422;-76
2021/12/23 01:26:19;;;;;;;15.17;10.90;;;0.20;91.40;;;;;;946990;149;27381;-77
2021/12/23 01:28:43;;;;;;;14.60;11.27;;;0.20;91.40;;;;;;945464;152;27313;-76
2021/12/23 01:31:10;;;;;;;15.47;11.97;;;0.20;91.30;;;;;;953086;149;27341;-76
2021/12/23 01:33:36;;;;;;;15.77;11.53;;;0.20;91.30;;;;;;954199;149;27252;-76
2021/12/23 01:36:03;;;;;;;18.97;12.80;;;0.20;91.20;;;;;;945581;151;27317;-76
2021/12/23 01:38:29;;;;;;;20.60;12.73;;;0.20;91.20;;;;;;945515;151;27337;-76
2021/12/23 01:40:56;;;;;;;19.70;12.97;;;0.20;91.10;;;;;;948912;151;27320;-77
2021/12/23 01:43:23;;;;;;;14.90;11.37;;;0.20;91.40;;;;;;975006;147;27237;-76
2021/12/23 01:45:49;;;;;;;15.93;12.07;;;0.20;91.10;;;;;;940842;149;27884;-76
2021/12/23 01:48:16;;;;;;;15.53;11.20;;;0.10;91.00;;;;;;938962;151;27341;-76
2021/12/23 01:50:42;;;;;;;17.40;12.13;;;0.10;91.00;;;;;;967852;148;27319;-76
2021/12/23 01:53:09;;;;;;;19.93;12.20;;;0.10;91.00;;;;;;949190;151;27401;-76
2021/12/23 01:55:36;;;;;;;17.83;12.17;;;0.10;90.90;;;;;;956601;148;27365;-76
2021/12/23 01:58:05;;;;;;;14.83;11.60;;;0.10;90.90;;;;;;943767;151;27339;-76
2021/12/23 02:00:33;;;;;;;14.73;11.47;;;0.00;90.80;;;;;;940168;149;27360;-77
2021/12/23 02:02:58;;;;;;;15.43;12.37;;;0.00;90.70;;;;;;951450;148;27395;-76
2021/12/23 02:05:24;;;;;;;14.57;11.40;;;0.00;90.70;;;;;;961202;146;27342;-76
2021/12/23 02:07:51;;;;;;;15.87;12.03;;;-0.10;90.70;;;;;;965857;148;27881;-76
2021/12/23 02:10:18;;;;;;;18.77;12.77;;;-0.10;90.80;;;;;;956163;145;27430;-77
2021/12/23 02:12:47;;;;;;;17.17;12.70;;;-0.10;90.80;;;;;;958301;146;27702;-76
2021/12/23 02:15:13;;;;;;;14.70;11.07;;;-0.20;90.90;;;;;;951928;148;27369;-77
2021/12/23 02:17:40;;;;;;;18.50;12.43;;;-0.20;90.90;;;;;;943255;151;27362;-76
2021/12/23 02:20:07;;;;;;;15.03;11.47;;;-0.20;91.00;;;;;;951871;148;27332;-76
2021/12/23 02:22:33;;;;;;;17.53;13.07;;;-0.20;91.10;;;;;;968864;146;27317;-77
2021/12/23 02:25:00;;;;;;;15.83;12.17;;;-0.20;91.10;;;;;;959757;146;27364;-76
2021/12/23 02:27:26;;;;;;;18.03;12.50;;;-0.20;91.20;;;;;;950847;146;27648;-76
2021/12/23 02:29:53;;;;;;;19.10;12.27;;;-0.20;91.20;;;;;;936332;150;27271;-76
2021/12/23 02:32:20;;;;;;;15.20;12.40;;;-0.20;91.20;;;;;;960780;146;27282;-76
2021/12/23 02:34:46;;;;;;;15.83;11.73;;;-0.20;91.20;;;;;;942162;150;27336;-77
2021/12/23 02:37:14;;;;;;;16.50;11.67;;;-0.20;91.10;;;;;;932802;153;27434;-76
2021/12/23 02:39:39;;;;;;;16.63;12.53;;;-0.30;91.10;;;;;;957549;146;27396;-76
2021/12/23 02:42:06;;;;;;;17.33;12.33;;;-0.30;91.00;;;;;;952841;150;27291;-76
2021/12/23 02:44:35;;;;;;;16.47;12.17;;;-0.30;91.00;;;;;;933668;151;27433;-77
2021/12/23 02:47:02;;;;;;;18.60;12.50;;;-0.30;90.90;;;;;;943140;150;27732;-76
2021/12/23 02:49:29;;;;;;;17.87;12.80;;;-0.30;90.90;;;;;;935145;151;27325;-76
2021/12/23 02:51:55;;;;;;;16.37;11.90;;;-0.30;91.00;;;;;;936347;151;27322;-76
2021/12/23 02:54:22;;;;;;;14.67;11.27;;;-0.40;90.90;;;;;;943951;148;27309;-76
2021/12/23 02:56:48;;;;;;;17.23;12.20;;;-0.40;91.00;;;;;;940160;151;27402;-76
2021/12/23 02:59:15;;;;;;;18.00;12.13;;;-0.40;91.00;;;;;;944819;151;27351;-76
2021/12/23 03:01:42;;;;;;;15.80;12.17;;;-0.40;91.00;;;;;;935585;149;27332;-76
2021/12/23 03:04:08;;;;;;;17.43;12.67;;;-0.40;91.00;;;;;;965882;146;27409;-76
2021/12/23 03:06:35;;;;;;;16.23;12.17;;;-0.40;91.00;;;;;;951200;147;27305;-77
2021/12/23 03:09:03;;;;;;;17.67;12.27;;;-0.50;91.00;;;;;;949193;150;27768;-76
2021/12/23 03:11:31;;;;;;;19.10;12.97;;;-0.50;91.00;;;;;;941406;152;27451;-76
2021/12/23 03:13:57;;;;;;;17.03;12.80;;;-0.50;91.00;;;;;;942698;152;27390;-77
2021/12/23 03:16:26;;;;;;;19.30;12.63;;;-0.50;91.10;;;;;;929131;152;27419;-78
2021/12/23 03:18:53;;;;;;;17.47;12.67;;;-0.50;91.20;;;;;;958005;146;27281;-77
2021/12/23 03:21:20;;;;;;;18.73;12.53;;;-0.50;91.30;;;;;;948493;147;27308;-77
2021/12/23 03:23:46;;;;;;;18.33;12.23;;;-0.50;91.40;;;;;;939469;149;27270;-78
2021/12/23 03:26:15;;;;;;;16.23;12.00;;;-0.50;91.50;;;;;;947183;149;27471;-78
2021/12/23 03:28:42;;;;;;;16.37;11.70;;;-0.50;91.50;;;;;;954595;147;27345;-77
2021/12/23 03:31:09;;;;;;;19.00;12.70;;;-0.50;91.50;;;;;;949719;149;27289;-77
2021/12/23 03:33:35;;;;;;;17.37;13.30;;;-0.40;91.60;;;;;;946479;151;27425;-72
2021/12/23 03:36:02;;;;;;;17.80;12.27;;;-0.40;91.60;;;;;;958434;149;27276;-73
2021/12/23 03:38:28;;;;;;;16.23;11.93;;;-0.40;91.60;;;;;;946385;149;27396;-72
2021/12/23 03:40:55;;;;;;;16.37;12.50;;;-0.40;91.50;;;;;;944406;151;27236;-72
2021/12/23 03:43:22;;;;;;;19.83;13.40;;;-0.30;91.20;;;;;;945574;151;27338;-73
2021/12/23 03:45:48;;;;;;;16.23;11.53;;;-0.30;91.40;;;;;;952910;149;27405;-72
2021/12/23 03:48:15;;;;;;;16.27;11.60;;;-0.30;91.40;;;;;;945921;150;27376;-71
2021/12/23 03:50:41;;;;;;;17.63;12.03;;;-0.30;91.30;;;;;;946920;149;27698;-71
2021/12/23 03:53:08;;;;;;;19.13;12.90;;;-0.30;91.20;;;;;;952329;149;27315;-71
2021/12/23 03:55:34;;;;;;;16.90;12.10;;;-0.30;91.10;;;;;;946001;149;27351;-71
2021/12/23 03:58:01;;;;;;;18.70;12.73;;;-0.30;91.00;;;;;;957240;149;27244;-71
2021/12/23 04:00:28;;;;;;;20.13;12.47;;;-0.30;91.00;;;;;;953212;149;27723;-72
2021/12/23 04:02:55;;;;;;;19.47;12.67;;;-0.40;91.00;;;;;;945688;151;27423;-71
2021/12/23 04:05:21;;;;;;;18.93;13.70;;;-0.40;91.10;;;;;;948043;149;27334;-71
2021/12/23 04:07:47;;;;;;;17.63;13.77;;;-0.40;91.20;;;;;;952049;149;27452;-71
2021/12/23 04:10:17;;;;;;;17.90;12.93;;;-0.40;91.20;;;;;;950901;148;27310;-72
2021/12/23 04:12:46;;;;;;;17.93;12.13;;;-0.40;91.20;;;;;;950013;149;27418;-72
2021/12/23 04:15:12;;;;;;;18.27;12.50;;;-0.40;91.20;;;;;;949068;148;27308;-73
2021/12/23 04:17:39;;;;;;;21.43;14.13;;;-0.30;91.20;;;;;;954137;149;27340;-71
2021/12/23 04:20:18;;;;;;;20.93;12.90;;;-0.30;91.30;;;;;;957616;149;27243;-71
2021/12/23 04:22:41;;;;;;;19.50;13.87;;;-0.30;91.30;;;;;;952873;149;27427;-74
2021/12/23 04:25:08;;;;;;;20.67;13.50;;;-0.30;91.30;;;;;;945654;152;27310;-73
2021/12/23 04:27:35;;;;;;;17.73;12.93;;;-0.30;91.40;;;;;;960090;148;27477;-74
2021/12/23 04:30:01;;;;;;;17.87;12.90;;;-0.30;91.50;;;;;;949579;149;27406;-74
2021/12/23 04:32:28;;;;;;;17.43;12.97;;;-0.20;91.60;;;;;;935134;150;27327;-72
2021/12/23 04:34:54;;;;;;;20.13;14.20;;;-0.20;91.70;;;;;;927388;152;27263;-72
2021/12/23 04:37:21;;;;;;;17.77;13.10;;;-0.10;91.70;;;;;;936323;151;27302;-71
2021/12/23 04:39:47;;;;;;;18.43;12.57;;;-0.10;91.70;;;;;;945177;152;27430;-72
2021/12/23 04:42:14;;;;;;;19.67;12.73;;;0.00;91.70;;;;;;942621;151;27404;-72
2021/12/23 04:44:41;;;;;;;16.73;12.97;;;0.00;92.10;;;;;;936716;150;27320;-71
2021/12/23 04:47:07;;;;;;;17.57;12.80;;;0.10;91.70;;;;;;935183;152;27652;-72
2021/12/23 04:49:34;;;;;;;18.83;12.37;;;0.10;91.70;;;;;;938166;151;27428;-71
2021/12/23 04:52:00;;;;;;;17.43;12.87;;;0.20;91.70;;;;;;940182;151;27339;-72
2021/12/23 04:54:27;;;;;;;17.87;13.23;;;0.20;91.60;;;;;;940764;152;27395;-73
2021/12/23 04:56:54;;;;;;;18.47;13.07;;;0.30;91.60;;;;;;943379;150;27381;-72
2021/12/23 04:59:20;;;;;;;15.23;12.23;;;0.30;91.50;;;;;;937846;150;27406;-72
2021/12/23 05:01:47;;;;;;;17.63;12.63;;;0.40;91.60;;;;;;928495;153;27339;-72
2021/12/23 05:04:13;;;;;;;16.67;12.17;;;0.40;91.50;;;;;;940775;151;27308;-71
2021/12/23 05:06:41;;;;;;;18.30;13.53;;;0.40;91.60;;;;;;941218;151;27316;-73
2021/12/23 05:09:07;;;;;;;21.50;13.53;;;0.50;91.50;;;;;;938869;150;27441;-72
2021/12/23 05:11:33;;;;;;;16.67;12.90;;;0.50;91.60;;;;;;940993;151;27286;-72
2021/12/23 05:14:00;;;;;;;17.87;13.13;;;0.60;91.40;;;;;;942207;150;27291;-72
2021/12/23 05:16:26;;;;;;;16.47;13.07;;;0.60;91.30;;;;;;943660;150;27298;-72
2021/12/23 05:18:53;;;;;;;20.80;14.27;;;0.60;91.30;;;;;;946812;150;27467;-72
2021/12/23 05:21:19;;;;;;;19.27;13.97;;;0.60;91.20;;;;;;941294;149;27341;-72
2021/12/23 05:23:46;;;;;;;18.57;13.40;;;0.70;91.20;;;;;;938727;151;27262;-71
2021/12/23 05:26:13;;;;;;;16.37;13.30;;;0.70;91.20;;;;;;939744;150;27898;-71
2021/12/23 05:28:39;;;;;;;19.43;12.83;;;0.70;91.20;;;;;;941127;151;27413;-71
2021/12/23 05:31:06;;;;;;;14.87;12.53;;;0.70;91.10;;;;;;939424;150;27284;-71
2021/12/23 05:33:32;;;;;;;18.00;12.87;;;0.70;91.00;;;;;;940338;151;27307;-71
2021/12/23 05:35:59;;;;;;;17.20;12.47;;;0.70;90.90;;;;;;940397;152;27417;-71
2021/12/23 05:38:26;;;;;;;19.57;13.53;;;0.70;90.90;;;;;;940291;150;27381;-72
2021/12/23 05:40:52;;;;;;;18.70;13.20;;;0.70;90.80;;;;;;942795;150;27432;-73
2021/12/23 05:43:19;;;;;;;16.67;12.83;;;0.70;90.80;;;;;;945963;150;27249;-74
2021/12/23 05:45:45;;;;;;;19.53;13.60;;;0.70;90.70;;;;;;940437;150;27322;-71
2021/12/23 05:48:12;;;;;;;18.07;13.83;;;0.70;90.80;;;;;;942329;152;27362;-72
2021/12/23 05:50:39;;;;;;;18.73;12.07;;;0.70;90.80;;;;;;941480;152;27311;-73
2021/12/23 05:53:05;;;;;;;18.47;13.40;;;0.70;90.80;;;;;;948417;150;27286;-72
2021/12/23 05:55:32;;;;;;;18.27;13.77;;;0.70;90.90;;;;;;942814;150;27324;-73
2021/12/23 05:58:01;;;;;;;18.30;14.00;;;0.70;90.90;;;;;;941311;152;27324;-71
2021/12/23 06:00:28;;;;;;;17.17;13.17;;;0.70;90.90;;;;;;940080;150;27809;-74
2021/12/23 06:02:54;;;;;;;15.80;12.53;;;0.80;90.90;;;;;;941157;152;27338;-72
2021/12/23 06:05:21;;;;;;;17.60;13.77;;;0.80;90.90;;;;;;940216;150;27310;-72
2021/12/23 06:07:47;;;;;;;16.20;13.03;;;0.80;90.90;;;;;;942396;151;27313;-72
2021/12/23 06:10:14;;;;;;;18.53;13.30;;;0.80;90.80;;;;;;947199;150;27300;-72
2021/12/23 06:12:40;;;;;;;16.73;13.20;;;0.80;90.80;;;;;;942177;150;27336;-72
2021/12/23 06:15:07;;;;;;;19.50;13.27;;;0.80;90.80;;;;;;949491;150;27289;-72
2021/12/23 06:17:34;;;;;;;16.93;12.47;;;0.80;90.80;;;;;;947880;150;27286;-71
2021/12/23 06:20:00;;;;;;;19.10;13.50;;;0.80;90.70;;;;;;940730;152;27375;-73
2021/12/23 06:22:27;;;;;;;16.70;12.73;;;0.80;90.70;;;;;;940310;150;27392;-71
2021/12/23 06:24:53;;;;;;;17.67;12.63;;;0.80;90.60;;;;;;952750;149;27291;-71
2021/12/23 06:27:20;;;;;;;18.33;13.30;;;0.80;90.60;;;;;;940654;150;27381;-71
2021/12/23 06:29:47;;;;;;;20.47;13.77;;;0.80;90.60;;;;;;955578;147;27369;-73
2021/12/23 06:32:13;;;;;;;16.07;12.33;;;0.80;90.50;;;;;;960863;147;27416;-71
2021/12/23 06:34:40;;;;;;;18.67;13.17;;;0.80;90.50;;;;;;966549;147;27295;-72
2021/12/23 06:37:06;;;;;;;17.57;13.00;;;0.80;90.50;;;;;;954610;150;27409;-72
2021/12/23 06:39:33;;;;;;;16.97;12.37;;;0.80;90.50;;;;;;955732;147;27318;-74
2021/12/23 06:42:00;;;;;;;17.07;13.13;;;0.80;90.50;;;;;;961219;147;27357;-71
2021/12/23 06:44:26;;;;;;;18.37;12.90;;;0.80;90.50;;;;;;960973;147;27313;-71
2021/12/23 06:46:53;;;;;;;18.43;13.37;;;0.80;90.50;;;;;;955545;150;27391;-72
2021/12/23 06:49:22;;;;;;;18.47;13.63;;;0.70;90.60;;;;;;960520;147;27305;-71
2021/12/23 06:51:49;;;;;;;16.33;12.40;;;0.80;90.70;;;;;;967349;147;27395;-72
2021/12/23 06:54:15;;;;;;;17.83;12.73;;;0.70;90.70;;;;;;964952;147;27302;-72
2021/12/23 06:56:42;;;;;;;18.73;12.60;;;0.80;90.80;;;;;;964789;147;27341;-73
2021/12/23 06:59:09;;;;;;;16.60;12.80;;;0.80;90.90;;;;;;967713;147;27379;-72
2021/12/23 07:01:35;;;;;;;19.20;13.50;;;0.80;91.00;;;;;;955390;149;27313;-72
2021/12/23 07:04:14;;;;;;;18.80;13.07;;;0.90;91.00;;;;;;955443;147;27352;-72
2021/12/23 07:06:35;;;;;;;18.77;12.67;;;0.90;91.00;;;;;;955079;147;27387;-72
2021/12/23 07:09:02;;;;;;;16.87;13.57;;;0.90;90.90;;;;;;955307;150;27319;-71
2021/12/23 07:11:27;;;;;;;19.67;14.17;;;1.00;91.10;;;;;;962897;147;27326;-71
2021/12/23 07:13:54;;;;;;;19.33;13.57;;;1.00;90.90;;;;;;963308;147;27419;-72
2021/12/23 07:16:20;;;;;;;18.27;13.00;;;1.10;90.80;;;;;;955865;147;27410;-71
2021/12/23 07:18:47;;;;;;;18.93;13.17;;;1.10;90.80;;;;;;963044;148;27306;-72
2021/12/23 07:21:14;;;;;;;25.73;14.23;;;1.10;90.60;;;;;;959802;147;27375;-71
2021/12/23 07:23:40;;;;;;;17.23;13.00;;;1.10;90.60;;;;;;959800;148;27306;-72
2021/12/23 07:26:07;;;;;;;16.10;12.70;;;1.10;90.40;;;;;;958471;148;27315;-72
2021/12/23 07:28:33;;;;;;;18.00;13.10;;;1.10;90.30;;;;;;954749;150;27484;-73
2021/12/23 07:31:00;;;;;;;17.47;12.43;;;1.10;90.30;;;;;;945761;152;27434;-71
2021/12/23 07:33:29;;;;;;;16.03;12.23;;;1.10;90.30;;;;;;954156;149;27255;-73
2021/12/23 07:35:56;;;;;;;19.10;13.87;;;1.00;90.30;;;;;;959388;148;27291;-72
2021/12/23 07:38:22;;;;;;;18.80;13.30;;;1.00;90.30;;;;;;957247;149;27341;-72
2021/12/23 07:40:49;;;;;;;17.37;13.47;;;1.00;90.30;;;;;;960572;149;27306;-71
2021/12/23 07:43:42;;;;;;;18.63;13.53;;;1.00;90.30;;;;;;959029;149;27403;-73
2021/12/23 07:45:48;;;;;;;18.80;13.83;;;1.00;90.30;;;;;;945010;152;27334;-72
2021/12/23 07:48:14;;;;;;;19.60;13.27;;;1.00;90.30;;;;;;946586;149;27321;-72
2021/12/23 07:50:43;;;;;;;20.03;14.13;;;0.90;90.30;;;;;;954803;149;27319;-72
2021/12/23 07:53:10;;;;;;;19.10;14.10;;;0.90;90.30;;;;;;948710;149;27313;-72
2021/12/23 07:55:39;;;;;;;19.60;14.17;;;1.00;90.30;;;;;;948896;149;27294;-71
2021/12/23 07:58:03;;;;;;;20.80;14.73;;;0.90;90.40;;;;;;965425;147;27279;-72
2021/12/23 08:00:30;;;;;;;20.53;15.17;;;1.00;90.40;;;;;;955619;149;27315;-73
2021/12/23 08:02:57;;;;;;;19.23;14.40;;;1.00;90.40;;;;;;947757;149;27383;-72
2021/12/23 08:05:23;;;;;;;20.00;13.57;;;1.00;90.60;;;;;;953076;149;27284;-72
2021/12/23 08:07:50;;;;;;;19.00;13.87;;;1.00;90.70;;;;;;952966;149;27292;-72
2021/12/23 08:10:16;;;;;;;19.90;13.97;;;1.00;90.70;;;;;;946569;149;27385;-71
2021/12/23 08:12:48;;;;;;;22.17;14.73;;;1.10;90.80;;;;;;954917;149;27391;-72
2021/12/23 08:15:18;;;;;;;19.67;13.80;;;1.10;90.90;;;;;;957052;149;27263;-72
2021/12/23 08:17:45;;;;;;;19.47;13.83;;;1.10;90.90;;;;;;952758;149;27397;-72
2021/12/23 08:20:11;;;;;;;17.23;13.20;;;1.20;91.00;;;;;;947218;149;27284;-71
2021/12/23 08:22:38;;;;;;;18.87;13.93;;;1.30;91.10;;;;;;951725;149;27294;-72
2021/12/23 08:25:04;;;;;;;16.93;13.27;;;1.30;91.10;;;;;;946866;151;27281;-72
2021/12/23 08:27:31;;;;;;;19.67;13.97;;;1.40;91.20;;;;;;945964;150;27295;-72
2021/12/23 08:29:57;;;;;;;17.50;12.97;;;1.50;91.30;;;;;;946801;150;27406;-73
2021/12/23 08:32:24;;;;;;;19.30;14.13;;;1.60;91.20;;;;;;946689;150;27736;-72
2021/12/23 08:34:51;;;;;;;21.23;15.17;;;1.60;91.20;;;;;;940973;150;27364;-72
2021/12/23 08:37:17;;;;;;;17.27;12.90;;;1.70;91.20;;;;;;941446;152;27342;-71
2021/12/23 08:39:44;;;;;;;19.70;14.20;;;1.80;91.20;;;;;;946525;150;27437;-72
2021/12/23 08:42:10;;;;;;;22.47;14.23;;;1.90;91.20;;;;;;942431;150;27406;-72
2021/12/23 08:44:40;;;;;;;17.10;13.13;;;2.00;91.20;;;;;;943052;152;27273;-72
2021/12/23 08:47:04;;;;;;;17.00;12.87;;;2.10;91.30;;;;;;945674;150;27377;-72
2021/12/23 08:49:30;;;;;;;18.47;13.00;;;2.20;91.30;;;;;;945940;150;27282;-72
2021/12/23 08:51:57;;;;;;;19.40;14.40;;;2.30;91.20;;;;;;946176;149;27391;-72
2021/12/23 08:54:23;;;;;;;18.53;13.80;;;2.40;91.10;;;;;;949916;150;27284;-71
2021/12/23 08:56:50;;;;;;;16.47;12.03;;;2.40;91.00;;;;;;941551;152;27474;-72
2021/12/23 08:59:18;;;;;;;17.97;14.47;;;2.50;90.90;;;;;;942678;150;27328;-72
2021/12/23 09:01:43;;;;;;;16.90;13.63;;;2.60;90.80;;;;;;931361;150;27790;-72
2021/12/23 09:04:10;;;;;;;18.13;13.63;;;2.70;90.70;;;;;;941476;152;27377;-72
2021/12/23 09:06:36;;;;;;;15.90;13.23;;;2.70;90.60;;;;;;942453;150;27410;-73
2021/12/23 09:09:09;;;;;;;17.20;14.17;;;2.70;90.50;;;;;;939858;150;27354;-72
2021/12/23 09:11:35;;;;;;;17.57;13.47;;;2.80;90.40;;;;;;941091;151;27457;-72
2021/12/23 09:14:02;;;;;;;16.60;13.90;;;2.80;90.40;;;;;;944386;150;27759;-74
2021/12/23 09:16:28;;;;;;;19.10;13.80;;;2.90;90.30;;;;;;940209;150;27323;-72
2021/12/23 09:18:55;;;;;;;17.77;13.43;;;2.90;90.30;;;;;;941861;150;27269;-72
2021/12/23 09:21:22;;;;;;;20.07;14.20;;;2.90;90.20;;;;;;941716;152;27293;-72
2021/12/23 09:23:48;;;;;;;16.23;13.63;;;3.00;90.20;;;;;;948806;150;27336;-73
2021/12/23 09:26:15;;;;;;;16.63;13.60;;;3.00;90.20;;;;;;946524;150;27276;-72
2021/12/23 09:33:55;;;;;;;16.50;12.80;;;3.20;90.30;;;;;;945817;151;27428;-72
2021/12/23 09:36:22;;;;;;;17.43;13.37;;;3.20;90.20;;;;;;945623;152;27320;-73
2021/12/23 09:38:49;;;;;;;16.37;13.73;;;3.30;90.20;;;;;;956909;149;27296;-72
2021/12/23 09:41:15;;;;;;;15.43;12.80;;;3.30;90.20;;;;;;962262;149;27311;-72
2021/12/23 09:43:42;;;;;;;15.87;12.70;;;3.40;90.20;;;;;;952000;149;27372;-74
2021/12/23 09:46:11;;;;;;;17.67;13.00;;;3.40;90.00;;;;;;950509;149;28859;-72
2021/12/23 09:48:42;;;;;;;16.03;12.97;;;3.50;90.00;;;;;;946307;151;27424;-72
2021/12/23 09:51:07;;;;;;;16.23;12.57;;;3.50;90.00;;;;;;952957;149;27521;-74
2021/12/23 09:53:33;;;;;;;19.17;13.77;;;3.60;90.00;;;;;;947003;148;27396;-73
2021/12/23 09:56:00;;;;;;;17.17;13.47;;;3.70;90.00;;;;;;945189;151;27372;-73
2021/12/23 09:58:27;;;;;;;17.17;13.40;;;3.70;89.90;;;;;;946491;151;27706;-72
2021/12/23 10:00:53;;;;;;;17.13;13.10;;;3.70;89.90;;;;;;948140;149;27299;-72
2021/12/23 10:03:20;;;;;;;18.33;13.73;;;3.80;90.00;;;;;;945653;149;27455;-73
2021/12/23 10:05:46;;;;;;;18.47;13.33;;;3.90;89.70;;;;;;949163;148;27312;-72
2021/12/23 10:08:14;;;;;;;16.53;13.53;;;3.90;89.30;;;;;;948291;149;27309;-72
2021/12/23 10:10:52;;;;;;;15.40;13.60;;;3.90;89.10;;;;;;947208;149;27319;-72
2021/12/23 10:37:53;;;;;;;17.30;12.97;;;4.20;88.70;;;;;;955655;148;27429;-72
2021/12/23 10:40:20;;;;;;;13.93;11.73;;;4.30;88.70;;;;;;948625;146;27459;-72
2021/12/23 10:42:49;;;;;;;18.90;13.70;;;4.30;88.50;;;;;;940089;151;27314;-73
2021/12/23 10:45:16;;;;;;;15.67;13.47;;;4.30;88.50;;;;;;961131;148;27259;-73
2021/12/23 10:47:57;;;;;;;17.50;13.93;;;4.40;88.50;;;;;;940519;149;27359;-72
2021/12/23 10:50:21;;;;;;;18.60;14.40;;;4.50;88.50;;;;;;951547;146;27448;-72
2021/12/23 10:52:53;;;;;;;16.43;12.87;;;4.50;88.50;;;;;;950678;148;27317;-73
2021/12/23 10:58:11;;;;;;;17.33;13.60;;;4.60;88.30;;;;;;951760;148;27332;-73
2021/12/23 11:00:31;;;;;;;17.53;13.13;;;4.70;88.20;;;;;;952497;148;27300;-74
2021/12/23 11:03:11;;;;;;;16.47;13.27;;;4.80;88.10;;;;;;928008;154;27357;-72
2021/12/23 11:05:38;;;;;;;17.30;12.67;;;4.80;87.90;;;;;;948007;151;27452;-74
2021/12/23 11:08:08;;;;;;;16.97;14.17;;;4.80;87.70;;;;;;963615;146;27273;-72
2021/12/23 11:38:08;;;;;;;16.03;13.63;;;5.20;85.90;;;;;;966475;147;27258;-72
2021/12/23 11:41:13;;;;;;;18.03;14.13;;;5.30;86.00;;;;;;936927;151;27297;-72
2021/12/23 11:43:23;;;;;;;18.03;14.47;;;5.30;86.00;;;;;;932547;150;27363;-72
2021/12/23 11:45:26;;;;;;;20.80;15.40;;;5.30;85.90;;;;;;951245;150;27363;-73
2021/12/23 11:47:53;;;;;;;18.93;14.10;;;5.30;85.60;;;;;;964510;147;27320;-73
2021/12/23 11:50:30;;;;;;;17.93;14.53;;;5.40;85.50;;;;;;968829;145;27457;-72
2021/12/23 11:52:46;;;;;;;19.67;14.93;;;5.40;85.40;;;;;;945614;148;27370;-72
2021/12/23 11:55:12;;;;;;;19.73;15.07;;;5.40;85.50;;;;;;950536;148;27280;-73
2021/12/23 11:57:41;;;;;;;18.53;14.70;;;5.40;85.30;;;;;;951367;148;27341;-73
2021/12/23 12:00:19;;;;;;;18.93;15.07;;;5.50;84.40;;;;;;952303;148;27336;-72
2021/12/23 12:02:44;;;;;;;18.80;14.73;;;5.50;84.80;;;;;;967964;145;27255;-73
2021/12/23 12:05:14;;;;;;;18.03;14.47;;;5.50;84.80;;;;;;968576;147;27275;-73
2021/12/23 12:07:43;;;;;;;17.03;14.23;;;5.50;84.60;;;;;;957948;148;27266;-73
2021/12/23 12:10:07;;;;;;;19.10;14.80;;;5.50;84.40;;;;;;953878;147;27949;-73
2021/12/23 12:12:34;;;;;;;18.43;14.63;;;5.50;84.40;;;;;;954974;148;27377;-73
2021/12/23 12:15:00;;;;;;;17.30;13.60;;;5.50;84.60;;;;;;953677;148;27891;-73
2021/12/23 12:17:33;;;;;;;17.63;13.63;;;5.50;84.70;;;;;;962376;148;27393;-72
2021/12/23 12:20:21;;;;;;;18.30;14.77;;;5.60;84.90;;;;;;955307;147;27396;-73
2021/12/23 12:23:00;;;;;;;18.00;14.13;;;5.60;84.90;;;;;;951513;150;27312;-73
2021/12/23 12:25:26;;;;;;;14.73;12.53;;;5.60;84.90;;;;;;950300;148;27686;-72
2021/12/23 12:27:56;;;;;;;18.53;14.73;;;5.60;85.00;;;;;;956081;148;27403;-73
2021/12/23 12:30:35;;;;;;;18.37;13.73;;;5.60;84.50;;;;;;943406;149;27407;-72
2021/12/23 12:33:04;;;;;;;17.33;13.77;;;5.60;85.00;;;;;;948613;150;27304;-72
2021/12/23 12:35:31;;;;;;;18.80;14.27;;;5.70;85.20;;;;;;919561;152;27555;-72
2021/12/23 12:37:57;;;;;;;19.07;14.47;;;5.70;85.20;;;;;;937844;150;27297;-72
2021/12/23 12:40:42;;;;;;;18.50;14.57;;;5.70;84.90;;;;;;940151;147;27253;-72
2021/12/23 12:43:35;;;;;;;15.43;12.67;;;5.80;84.80;;;;;;938122;150;27364;-72
2021/12/23 12:46:00;;;;;;;17.53;13.30;;;5.80;84.70;;;;;;930488;153;27405;-73
2021/12/23 12:48:58;;;;;;;15.97;14.10;;;5.90;84.60;;;;;;922328;153;27370;-72
2021/12/23 12:51:23;;;;;;;15.10;13.10;;;5.90;84.40;;;;;;928412;152;27423;-72
2021/12/23 12:53:55;;;;;;;16.77;13.83;;;5.90;84.10;;;;;;933654;150;27267;-73
2021/12/23 12:56:28;;;;;;;18.37;13.83;;;5.90;84.00;;;;;;927304;149;27480;-72
2021/12/23 12:58:54;;;;;;;19.40;14.80;;;5.90;84.10;;;;;;936243;151;27285;-72
2021/12/23 13:01:33;;;;;;;20.13;16.53;;;5.90;84.10;;;;;;945074;149;27412;-72
2021/12/23 13:04:00;;;;;;;16.67;13.67;;;6.00;84.10;;;;;;941902;148;27338;-72
2021/12/23 13:06:41;;;;;;;16.87;14.73;;;6.00;84.20;;;;;;944308;151;27406;-72
2021/12/23 13:09:07;;;;;;;17.90;14.43;;;6.00;84.20;;;;;;950700;147;27433;-73
2021/12/23 13:11:34;;;;;;;17.73;14.50;;;6.10;84.30;;;;;;935247;152;27334;-72
2021/12/23 13:14:01;;;;;;;22.43;16.00;;;6.10;84.20;;;;;;942254;151;27229;-72
2021/12/23 13:16:27;;;;;;;16.67;14.23;;;6.10;84.10;;;;;;928675;154;27344;-72
2021/12/23 13:19:13;;;;;;;17.87;14.90;;;6.20;84.20;;;;;;937786;152;27297;-72
2021/12/23 13:21:42;;;;;;;18.23;13.43;;;6.20;84.00;;;;;;935960;151;27358;-73
2021/12/23 13:24:11;;;;;;;16.93;13.67;;;6.30;83.90;;;;;;937187;150;27842;-72
2021/12/23 13:26:38;;;;;;;18.47;14.00;;;6.30;83.90;;;;;;942010;149;27777;-72
2021/12/23 13:29:07;;;;;;;15.93;13.60;;;6.30;83.80;;;;;;927870;153;27326;-72
2021/12/23 13:31:31;;;;;;;18.93;14.30;;;6.30;83.70;;;;;;932010;149;27254;-72
2021/12/23 13:34:00;;;;;;;19.23;15.40;;;6.30;83.70;;;;;;946257;151;27320;-72
2021/12/23 13:36:29;;;;;;;23.27;16.60;;;6.30;83.50;;;;;;941036;151;27399;-74